createdAt,value
2023-05-02T06:57:34.423Z,18.82
2023-05-02T07:00:37.243Z,18.86
2023-05-02T07:03:40.112Z,18.90
2023-05-02T07:06:42.955Z,18.97
2023-05-02T07:09:45.760Z,18.95
2023-05-02T07:12:49.998Z,19.01
2023-05-02T07:15:52.782Z,18.96
2023-05-02T07:18:55.561Z,19.05
2023-05-02T07:21:58.380Z,19.09
2023-05-02T07:25:02.493Z,19.04
2023-05-02T07:28:06.720Z,19.12
2023-05-02T07:31:09.475Z,19.13
2023-05-02T07:34:12.263Z,19.16
2023-05-02T07:37:15.185Z,19.20
2023-05-02T07:40:18.409Z,19.13
2023-05-02T07:43:22.896Z,19.21
2023-05-02T07:46:25.910Z,19.22
2023-05-02T07:49:28.767Z,19.28
2023-05-02T07:52:31.675Z,19.24
2023-05-02T07:55:34.458Z,19.25
2023-05-02T07:58:38.680Z,19.30
2023-05-02T08:01:41.617Z,19.29
2023-05-02T08:04:44.532Z,19.27
2023-05-02T08:07:47.719Z,19.36
2023-05-02T08:10:51.405Z,19.29
2023-05-02T08:13:56.000Z,19.30
2023-05-02T08:16:58.825Z,19.34
2023-05-02T08:20:02.024Z,19.27
2023-05-02T08:23:05.078Z,19.36
2023-05-02T08:26:07.953Z,19.36
2023-05-02T08:29:12.613Z,19.30
2023-05-02T08:32:15.534Z,19.35
2023-05-02T08:35:18.518Z,19.38
2023-05-02T08:38:21.230Z,19.39
2023-05-02T08:41:24.110Z,19.38
2023-05-02T08:44:28.288Z,19.45
2023-05-02T08:47:32.919Z,19.43
2023-05-02T08:50:37.947Z,19.44
2023-05-02T08:53:41.132Z,19.44
2023-05-02T08:56:43.888Z,19.47
2023-05-02T08:59:48.739Z,19.49
2023-05-02T09:02:57.073Z,19.56
2023-05-02T09:06:05.497Z,19.59
2023-05-02T09:09:08.556Z,19.61
2023-05-02T09:12:11.336Z,19.65
2023-05-02T09:15:18.965Z,19.62
2023-05-02T09:18:23.492Z,19.65
2023-05-02T09:21:27.067Z,19.66
2023-05-02T09:24:30.166Z,19.66
2023-05-02T09:27:49.617Z,19.68
2023-05-02T09:31:07.499Z,19.73
2023-05-02T09:34:11.393Z,19.69
2023-05-02T09:37:34.202Z,19.73
2023-05-02T09:40:37.090Z,19.73
2023-05-02T09:43:40.613Z,19.73
2023-05-02T09:46:45.565Z,19.75
2023-05-02T09:49:49.773Z,19.74
2023-05-02T09:53:02.540Z,19.75
2023-05-02T09:56:05.566Z,19.77
2023-05-02T09:59:15.168Z,19.81
2023-05-02T10:02:19.340Z,19.82
2023-05-02T10:05:22.357Z,19.86
2023-05-02T10:08:27.401Z,19.89
2023-05-02T10:11:31.369Z,19.88
2023-05-02T10:14:37.804Z,19.85
2023-05-02T10:17:44.076Z,19.89
2023-05-02T10:20:50.719Z,19.93
2023-05-02T10:23:54.296Z,19.95
2023-05-02T10:26:57.234Z,19.90
2023-05-02T10:30:00.650Z,19.90
2023-05-02T10:33:06.096Z,19.89
2023-05-02T10:36:10.448Z,19.95
2023-05-02T10:39:13.579Z,19.97
2023-05-02T10:42:17.678Z,19.97
2023-05-02T10:45:33.409Z,19.97
2023-05-02T10:48:38.766Z,20.00
2023-05-02T10:51:42.317Z,20.02
2023-05-02T10:54:45.078Z,20.00
2023-05-02T10:58:06.486Z,20.06
2023-05-02T11:01:28.397Z,20.00
2023-05-02T11:04:49.507Z,20.05
2023-05-02T11:08:13.684Z,20.05
2023-05-02T11:11:34.951Z,20.07
2023-05-02T11:14:44.837Z,20.11
2023-05-02T11:18:00.157Z,20.10
2023-05-02T11:21:17.914Z,20.22
2023-05-02T11:24:40.496Z,20.25
2023-05-02T11:27:44.722Z,20.23
2023-05-02T11:30:48.771Z,20.20
2023-05-02T11:33:56.758Z,20.22
2023-05-02T11:36:59.529Z,20.21
2023-05-02T11:40:13.157Z,20.23
2023-05-02T11:43:16.487Z,20.27
2023-05-02T11:46:21.217Z,20.27
2023-05-02T11:49:24.137Z,20.29
2023-05-02T11:52:27.047Z,20.29
2023-05-02T11:55:31.254Z,20.32
2023-05-02T11:58:34.609Z,20.30
2023-05-02T12:01:37.532Z,20.33
2023-05-02T12:04:43.640Z,20.41
2023-05-02T12:07:47.305Z,20.45
2023-05-02T12:10:52.515Z,20.42
2023-05-02T12:13:55.922Z,20.47
2023-05-02T12:16:59.452Z,20.46
2023-05-02T12:20:04.056Z,20.45
2023-05-02T12:23:08.139Z,20.45
2023-05-02T12:26:22.701Z,20.44
2023-05-02T12:29:38.375Z,20.49
2023-05-02T12:32:45.480Z,20.52
2023-05-02T12:35:49.051Z,20.53
2023-05-02T12:38:53.781Z,20.54
2023-05-02T12:41:59.029Z,20.58
2023-05-02T12:45:01.760Z,20.61
2023-05-02T12:48:18.534Z,20.63
2023-05-02T12:51:24.799Z,20.64
2023-05-02T12:54:27.652Z,20.66
2023-05-02T12:57:31.977Z,20.68
2023-05-02T13:00:35.898Z,20.67
2023-05-02T13:03:38.949Z,20.75
2023-05-02T13:06:42.417Z,20.73
2023-05-02T13:09:45.554Z,20.77
2023-05-02T13:12:49.887Z,20.78
2023-05-02T13:15:52.703Z,20.84
2023-05-02T13:18:55.640Z,20.75
2023-05-02T13:21:58.475Z,20.75
2023-05-02T13:25:01.241Z,20.68
2023-05-02T13:28:06.639Z,20.75
2023-05-02T13:31:09.509Z,20.69
2023-05-02T13:34:12.338Z,20.63
2023-05-02T13:37:15.154Z,20.73
2023-05-02T13:40:18.042Z,20.73
2023-05-02T13:43:24.433Z,20.59
2023-05-02T13:46:27.352Z,20.64
2023-05-02T13:49:30.176Z,20.70
2023-05-02T13:52:32.985Z,20.72
2023-05-02T13:55:35.720Z,20.62
2023-05-02T13:58:39.879Z,20.61
2023-05-02T14:01:42.696Z,20.55
2023-05-02T14:04:45.545Z,20.53
2023-05-02T14:07:48.423Z,20.41
2023-05-02T14:10:51.227Z,20.32
2023-05-02T14:13:57.650Z,20.60
2023-05-02T14:17:02.134Z,20.92
2023-05-02T14:20:05.893Z,20.90
2023-05-02T14:23:08.702Z,20.97
2023-05-02T14:26:11.530Z,21.00
2023-05-02T14:29:15.830Z,20.97
2023-05-02T14:32:18.641Z,20.99
2023-05-02T14:35:21.532Z,21.16
2023-05-02T14:38:24.258Z,21.09
2023-05-02T14:41:27.772Z,21.05
2023-05-02T14:44:31.998Z,21.09
2023-05-02T14:47:34.977Z,21.12
2023-05-02T14:50:39.705Z,21.25
2023-05-02T14:53:42.867Z,21.18
2023-05-02T14:56:45.801Z,21.20
2023-05-02T14:59:50.022Z,21.19
2023-05-02T15:02:52.948Z,21.22
2023-05-02T15:05:55.840Z,21.22
2023-05-02T15:08:58.616Z,21.24
2023-05-02T15:12:02.942Z,21.26
2023-05-02T15:15:09.171Z,21.26
2023-05-02T15:18:12.056Z,21.29
2023-05-02T15:21:14.881Z,21.30
2023-05-02T15:24:17.702Z,21.27
2023-05-02T15:27:20.486Z,21.34
2023-05-02T15:30:24.642Z,21.41
2023-05-02T15:33:27.446Z,21.42
2023-05-02T15:36:31.113Z,21.41
2023-05-02T15:39:33.853Z,21.41
2023-05-02T15:42:37.839Z,21.41
2023-05-02T15:45:42.131Z,21.39
2023-05-02T15:48:44.960Z,21.41
2023-05-02T15:51:48.190Z,21.38
2023-05-02T15:54:51.916Z,21.39
2023-05-02T15:57:54.686Z,21.33
2023-05-02T16:00:58.833Z,21.33
2023-05-02T16:04:01.661Z,21.29
2023-05-02T16:07:04.486Z,21.29
2023-05-02T16:10:07.865Z,21.28
2023-05-02T16:13:10.854Z,21.25
2023-05-02T16:16:15.057Z,21.00
2023-05-02T16:19:17.931Z,21.09
2023-05-02T16:22:20.633Z,21.05
2023-05-02T16:25:23.518Z,21.10
2023-05-02T16:28:26.395Z,21.08
2023-05-02T16:31:30.658Z,21.05
2023-05-02T16:34:33.902Z,21.03
2023-05-02T16:37:36.771Z,20.99
2023-05-02T16:40:39.536Z,20.99
2023-05-02T16:43:42.287Z,20.96
2023-05-02T16:46:46.475Z,20.97
2023-05-02T16:49:53.464Z,20.95
2023-05-02T16:52:56.214Z,20.86
2023-05-02T16:55:59.735Z,20.84
2023-05-02T16:59:02.828Z,20.89
2023-05-02T17:02:07.275Z,20.85
2023-05-02T17:05:11.349Z,20.80
2023-05-02T17:08:14.157Z,20.80
2023-05-02T17:11:17.573Z,20.75
2023-05-02T17:14:20.342Z,20.77
2023-05-02T17:17:24.504Z,20.79
2023-05-02T17:20:27.203Z,20.78
2023-05-02T17:23:30.393Z,20.73
2023-05-02T17:26:33.226Z,20.74
2023-05-02T17:29:36.144Z,20.68
2023-05-02T17:32:40.588Z,20.68
2023-05-02T17:35:43.473Z,20.69
2023-05-02T17:38:46.225Z,20.66
2023-05-02T17:41:49.001Z,20.74
2023-05-02T17:44:53.244Z,20.64
2023-05-02T17:47:57.450Z,20.58
2023-05-02T17:51:02.172Z,20.53
2023-05-02T17:54:05.076Z,20.51
2023-05-02T17:57:07.816Z,20.52
2023-05-02T18:00:11.171Z,20.43
2023-05-02T18:03:15.421Z,20.48
2023-05-02T18:06:18.714Z,20.42
2023-05-02T18:09:21.574Z,20.42
2023-05-02T18:12:24.520Z,20.38
2023-05-02T18:15:27.600Z,20.37
2023-05-02T18:18:33.013Z,20.39
2023-05-02T18:21:37.672Z,20.50
2023-05-02T18:24:40.848Z,20.38
2023-05-02T18:27:43.708Z,20.40
2023-05-02T18:30:46.676Z,20.39
2023-05-02T18:33:51.665Z,20.36
2023-05-02T18:36:54.411Z,20.33
2023-05-02T18:39:57.209Z,20.33
2023-05-02T18:42:59.992Z,20.31
2023-05-02T18:46:02.821Z,20.34
2023-05-02T18:49:09.130Z,20.31
2023-05-02T18:52:12.034Z,20.36
2023-05-02T18:55:14.819Z,20.31
2023-05-02T18:58:17.839Z,20.31
2023-05-02T19:01:22.118Z,20.34
2023-05-02T19:04:26.501Z,20.30
2023-05-02T19:07:29.369Z,20.30
2023-05-02T19:10:32.391Z,20.30
2023-05-02T19:13:35.120Z,20.31
2023-05-02T19:16:40.162Z,20.41
2023-05-02T19:19:46.758Z,20.29
2023-05-02T19:22:50.017Z,20.29
2023-05-02T19:25:53.002Z,20.30
2023-05-02T19:28:55.907Z,20.24
2023-05-02T19:31:58.753Z,20.26
2023-05-02T19:35:04.415Z,20.23
2023-05-02T19:38:07.525Z,20.23
2023-05-02T19:41:10.456Z,20.25
2023-05-02T19:44:13.236Z,20.25
2023-05-02T19:47:16.017Z,20.23
2023-05-02T19:50:20.277Z,20.22
2023-05-02T19:53:23.251Z,20.29
2023-05-02T19:56:27.022Z,20.32
2023-05-02T19:59:29.913Z,20.21
2023-05-02T20:02:33.669Z,20.20
2023-05-02T20:05:37.916Z,20.20
2023-05-02T20:08:40.931Z,20.21
2023-05-02T20:11:43.795Z,20.22
2023-05-02T20:14:46.530Z,20.26
2023-05-02T20:17:49.377Z,20.21
2023-05-02T20:20:53.563Z,20.16
2023-05-02T20:23:56.337Z,20.14
2023-05-02T20:26:59.113Z,20.17
2023-05-02T20:30:02.215Z,20.19
2023-05-02T20:33:14.727Z,20.16
2023-05-02T20:36:21.025Z,20.15
2023-05-02T20:39:24.036Z,20.19
2023-05-02T20:42:27.059Z,20.15
2023-05-02T20:45:29.932Z,20.17
2023-05-02T20:48:34.073Z,20.17
2023-05-02T20:51:38.224Z,20.17
2023-05-02T20:54:41.264Z,20.13
2023-05-02T20:57:45.698Z,20.12
2023-05-02T21:00:52.541Z,20.10
2023-05-02T21:03:57.205Z,20.10
2023-05-02T21:07:02.055Z,20.13
2023-05-02T21:10:05.481Z,20.13
2023-05-02T21:13:08.377Z,20.09
2023-05-02T21:16:14.874Z,20.12
2023-05-02T21:19:17.644Z,20.08
2023-05-02T21:22:21.780Z,20.05
2023-05-02T21:25:24.826Z,20.08
2023-05-02T21:28:27.627Z,20.06
2023-05-02T21:31:30.439Z,20.06
2023-05-02T21:34:33.207Z,20.10
2023-05-02T21:37:37.377Z,20.04
2023-05-02T21:40:40.088Z,20.04
2023-05-02T21:43:42.797Z,20.00
2023-05-02T21:46:47.095Z,20.05
2023-05-02T21:49:49.899Z,20.03
2023-05-02T21:52:54.055Z,20.01
2023-05-02T21:55:56.784Z,20.02
2023-05-02T21:58:59.646Z,20.02
2023-05-02T22:02:02.476Z,19.97
2023-05-02T22:05:05.866Z,20.04
2023-05-02T22:08:11.170Z,20.03
2023-05-02T22:11:15.500Z,19.99
2023-05-02T22:14:18.230Z,20.11
2023-05-02T22:17:22.938Z,20.08
2023-05-02T22:20:27.331Z,20.06
2023-05-02T22:23:31.887Z,20.05
2023-05-02T22:26:35.688Z,20.05
2023-05-02T22:29:39.420Z,20.03
2023-05-02T22:32:42.596Z,20.05
2023-05-02T22:35:45.445Z,20.07
2023-05-02T22:38:49.796Z,20.02
2023-05-02T22:41:53.840Z,20.05
2023-05-02T22:44:57.673Z,20.05
2023-05-02T22:48:00.582Z,20.04
2023-05-02T22:51:04.550Z,19.97
2023-05-02T22:54:10.845Z,19.95
2023-05-02T22:57:14.326Z,20.04
2023-05-02T23:00:17.954Z,20.02
2023-05-02T23:03:22.915Z,19.99
2023-05-02T23:06:29.181Z,20.00
2023-05-02T23:09:34.804Z,19.99
2023-05-02T23:12:38.985Z,19.97
2023-05-02T23:15:43.118Z,20.00
2023-05-02T23:18:48.886Z,20.01
2023-05-02T23:21:53.286Z,19.96
2023-05-02T23:24:59.207Z,19.98
2023-05-02T23:28:03.496Z,19.93
2023-05-02T23:31:08.194Z,19.99
2023-05-02T23:34:12.709Z,19.98
2023-05-02T23:37:16.702Z,19.91
2023-05-02T23:40:22.537Z,19.90
2023-05-02T23:43:26.832Z,19.88
2023-05-02T23:46:31.063Z,19.87
2023-05-02T23:49:35.668Z,19.82
2023-05-02T23:52:39.956Z,19.83
2023-05-02T23:55:46.177Z,19.84
2023-05-02T23:58:50.530Z,19.87
